Time;durP1;ratioP1;P1;durP2;ratioP2;P2;SDS_P1;SDS_P2;PMS_P1;PMS_P2;Temp;Humidity;BMP_temperature;BMP_pressure;BME280_temperature;BME280_humidity;BME280_pressure;Samples;Min_cycle;Max_cycle;Signal;HPM_P1;HPM_P2
2021/06/02 05:02:12;;;;;;;1.92;1.38;;;;;;;13.45;83.88;95024.38;5201626;23;20096;-65
2021/06/02 05:05:15;;;;;;;3.20;2.30;;;;;;;13.50;81.67;95022.81;4856357;29;20482;-65
2021/06/02 05:07:50;;;;;;;4.45;1.63;;;;;;;13.18;81.47;95031.09;4855741;29;20041;-65
2021/06/02 05:10:18;;;;;;;4.15;1.60;;;;;;;13.64;82.59;95027.13;4858100;29;20025;-65
2021/06/02 05:12:46;;;;;;;3.38;1.50;;;;;;;13.43;80.38;95023.72;4855886;29;20033;-66
2021/06/02 05:15:45;;;;;;;2.67;1.80;;;;;;;12.93;83.16;95033.19;4856747;29;20048;-65
2021/06/02 05:18:41;;;;;;;2.50;1.98;;;;;;;12.67;84.27;95038.91;4857584;29;20064;-68
2021/06/02 05:24:29;;;;;;;5.05;3.40;;;;;;;12.84;83.59;95042.09;4856898;29;20041;-68
2021/06/02 05:27:33;;;;;;;5.97;2.97;;;;;;;12.97;84.21;95049.25;4856285;29;20037;-68
2021/06/02 05:30:23;;;;;;;3.17;2.88;;;;;;;13.05;83.02;95042.13;4844094;29;20045;-69
2021/06/02 05:33:10;;;;;;;3.13;2.65;;;;;;;13.22;83.12;95036.72;4857085;29;20056;-68
2021/06/02 05:35:59;;;;;;;2.38;2.17;;;;;;;13.89;81.41;95043.16;4857630;29;20037;-64
2021/06/02 05:38:56;;;;;;;3.10;2.63;;;;;;;14.11;80.51;95039.50;4856364;29;20561;-64
2021/06/02 05:41:28;;;;;;;2.70;2.50;;;;;;;14.06;80.92;95041.09;4845586;29;20075;-65
2021/06/02 05:44:12;;;;;;;2.58;2.25;;;;;;;13.24;81.81;95040.75;4855632;29;20034;-65
2021/06/02 05:47:05;;;;;;;2.33;2.13;;;;;;;13.10;83.99;95050.19;4856586;29;20219;-67
2021/06/02 05:49:36;;;;;;;3.05;2.75;;;;;;;13.45;83.09;95045.97;4857810;29;20066;-68
2021/06/02 05:52:32;;;;;;;4.95;4.40;;;;;;;13.43;83.33;95050.56;4855658;29;20137;-67
2021/06/02 05:55:28;;;;;;;5.43;3.58;;;;;;;13.41;82.63;95043.94;4856468;29;20410;-64
2021/06/02 05:58:31;;;;;;;6.88;3.63;;;;;;;13.64;81.67;95042.75;4856725;29;20144;-65
2021/06/02 06:01:33;;;;;;;3.38;3.08;;;;;;;13.82;80.46;95054.50;4855198;29;20050;-66
2021/06/02 06:04:04;;;;;;;2.80;2.55;;;;;;;14.23;77.50;95052.81;4843150;29;20034;-65
2021/06/02 06:07:15;;;;;;;7.20;3.50;;;;;;;13.93;79.96;95056.59;4835612;29;20042;-65
2021/06/02 06:10:29;;;;;;;5.13;4.15;;;;;;;13.97;80.12;95056.03;4832804;29;20042;-65
2021/06/02 06:13:16;;;;;;;4.90;3.78;;;;;;;13.67;80.79;95057.19;4820559;29;20038;-64
2021/06/02 06:15:51;;;;;;;4.72;4.07;;;;;;;14.29;79.71;95049.44;4835822;29;20029;-65
2021/06/02 06:18:43;;;;;;;4.18;3.53;;;;;;;13.84;81.90;95053.31;4833789;29;20544;-65
2021/06/02 06:21:18;;;;;;;3.95;3.55;;;;;;;14.00;81.81;95063.47;4844230;29;20033;-67
2021/06/02 06:23:43;;;;;;;3.92;3.53;;;;;;;13.83;81.51;95056.94;4854528;29;20033;-66
2021/06/02 06:26:50;;;;;;;4.50;4.07;;;;;;;13.79;81.88;95067.91;4853605;29;20038;-65
2021/06/02 06:29:23;;;;;;;9.02;4.50;;;;;;;13.89;82.05;95068.38;4855143;29;20094;-66
2021/06/02 06:31:49;;;;;;;6.28;5.03;;;;;;;13.74;81.51;95063.25;4824566;29;20064;-66
2021/06/02 06:34:17;;;;;;;5.45;4.95;;;;;;;13.74;81.46;95068.47;4838081;29;20082;-66
2021/06/02 06:36:43;;;;;;;9.23;5.88;;;;;;;13.81;81.52;95071.91;4839725;29;20026;-68
2021/06/02 06:39:21;;;;;;;8.15;6.25;;;;;;;13.76;81.24;95068.28;4823003;29;20037;-66
2021/06/02 06:41:47;;;;;;;6.15;4.82;;;;;;;13.85;80.57;95077.56;4856823;29;20149;-66
2021/06/02 06:44:13;;;;;;;8.45;4.68;;;;;;;13.73;81.00;95077.25;4853704;29;20029;-66
2021/06/02 06:46:38;;;;;;;6.47;4.88;;;;;;;14.12;80.04;95072.38;4839674;29;20028;-65
2021/06/02 06:49:04;;;;;;;6.13;5.53;;;;;;;14.46;79.46;95070.81;4839577;29;20042;-66
2021/06/02 06:51:30;;;;;;;18.23;9.48;;;;;;;14.34;80.92;95077.56;4839003;29;20121;-66
2021/06/02 06:53:56;;;;;;;14.48;8.85;;;;;;;14.68;79.31;95073.16;4839872;29;20459;-66
2021/06/02 06:56:21;;;;;;;8.20;6.03;;;;;;;14.57;79.24;95067.69;4837334;29;20026;-66
2021/06/02 06:58:47;;;;;;;5.50;4.53;;;;;;;14.96;77.52;95065.25;4839292;29;20044;-65
2021/06/02 07:01:16;;;;;;;6.25;5.65;;;;;;;15.24;77.37;95073.81;4822874;29;20435;-67
2021/06/02 07:03:42;;;;;;;6.10;5.27;;;;;;;15.59;76.19;95071.91;4824779;29;20040;-65
2021/06/02 07:06:08;;;;;;;5.80;5.20;;;;;;;15.02;77.43;95069.72;4837625;29;20492;-66
2021/06/02 07:08:33;;;;;;;6.57;4.68;;;;;;;15.85;75.79;95065.91;4839213;29;20112;-67
2021/06/02 07:11:00;;;;;;;7.07;5.78;;;;;;;17.76;69.88;95055.72;4824855;29;20053;-67
2021/06/02 07:13:25;;;;;;;6.60;4.57;;;;;;;21.31;56.22;95052.56;4838357;29;20415;-68
2021/06/02 07:15:52;;;;;;;5.22;4.47;;;;;;;20.99;60.20;95053.97;4825216;29;20434;-67
2021/06/02 07:18:20;;;;;;;5.18;4.43;;;;;;;20.11;58.04;95042.75;4823302;29;20025;-67
2021/06/02 07:20:47;;;;;;;4.43;4.03;;;;;;;24.01;48.88;95051.69;4840004;29;20056;-68
2021/06/02 07:23:13;;;;;;;4.63;4.20;;;;;;;20.03;57.81;95048.38;4838895;29;20038;-68
2021/06/02 07:25:38;;;;;;;7.25;6.15;;;;;;;18.65;61.56;95058.03;4819747;29;20600;-68
2021/06/02 07:28:07;;;;;;;31.08;14.52;;;;;;;20.98;57.78;95045.28;4804127;29;20026;-68
2021/06/02 07:30:33;;;;;;;8.83;7.47;;;;;;;20.18;58.97;95051.34;4835022;29;20033;-68
2021/06/02 07:32:59;;;;;;;5.93;5.15;;;;;;;18.84;62.80;95057.81;4806283;29;20034;-68
2021/06/02 07:35:25;;;;;;;16.70;8.48;;;;;;;19.31;64.33;95058.06;4835384;29;20038;-68
2021/06/02 07:37:51;;;;;;;10.52;7.00;;;;;;;20.48;57.77;95047.59;4820912;29;20408;-66
2021/06/02 07:40:16;;;;;;;4.95;4.55;;;;;;;19.64;60.07;95044.50;4836576;29;20030;-71
2021/06/02 07:42:42;;;;;;;8.32;7.15;;;;;;;19.92;59.12;95050.75;4821953;29;20523;-70
2021/06/02 07:45:08;;;;;;;8.23;6.07;;;;;;;20.21;60.41;95050.91;4820937;29;20389;-70
2021/06/02 07:47:33;;;;;;;8.40;4.65;;;;;;;19.54;62.31;95038.97;4820652;29;20094;-67
2021/06/02 07:49:59;;;;;;;5.50;5.00;;;;;;;20.54;61.57;95047.72;4836459;29;20037;-72
2021/06/02 07:52:25;;;;;;;5.70;4.45;;;;;;;20.76;59.17;95046.13;4819479;29;20045;-69
2021/06/02 07:54:50;;;;;;;10.45;4.60;;;;;;;20.49;58.68;95054.47;4821187;29;20034;-69
2021/06/02 07:57:16;;;;;;;4.30;3.90;;;;;;;20.18;58.85;95057.41;4806918;29;20030;-69
2021/06/02 07:59:41;;;;;;;4.32;3.92;;;;;;;21.10;59.64;95047.09;4840126;29;20046;-70
2021/06/02 08:02:07;;;;;;;4.43;4.03;;;;;;;20.56;56.48;95046.47;4823676;29;20071;-68
2021/06/02 08:04:32;;;;;;;4.00;3.65;;;;;;;19.57;59.50;95043.78;4824565;29;20530;-66
2021/06/02 08:07:00;;;;;;;7.82;3.97;;;;;;;19.70;59.45;95044.41;4824958;29;20048;-68
2021/06/02 08:09:25;;;;;;;3.92;3.63;;;;;;;19.55;60.60;95046.66;4823525;29;20026;-69
2021/06/02 08:11:51;;;;;;;4.28;3.95;;;;;;;20.90;57.60;95044.84;4824667;29;20486;-68
2021/06/02 08:14:16;;;;;;;17.13;4.20;;;;;;;21.66;56.52;95054.22;4807908;29;20030;-69
2021/06/02 08:16:42;;;;;;;5.63;3.88;;;;;;;21.69;56.64;95054.56;4824638;29;20518;-67
2021/06/02 08:19:08;;;;;;;4.57;4.18;;;;;;;21.12;56.67;95051.13;4808161;29;20062;-68
2021/06/02 08:21:33;;;;;;;5.10;3.90;;;;;;;20.98;57.82;95060.28;4824219;29;20026;-67
2021/06/02 08:23:59;;;;;;;7.28;4.75;;;;;;;20.38;56.81;95052.66;4823788;29;20073;-66
2021/06/02 08:26:25;;;;;;;4.95;3.72;;;;;;;20.34;57.16;95054.13;4840419;29;20395;-66
2021/06/02 08:28:50;;;;;;;5.38;3.42;;;;;;;21.51;56.85;95049.50;4841111;29;20518;-66
2021/06/02 08:31:16;;;;;;;3.85;3.40;;;;;;;20.85;54.66;95048.16;4822717;29;20026;-67
2021/06/02 08:33:43;;;;;;;3.55;3.25;;;;;;;21.55;55.23;95054.03;4824161;29;20044;-66
2021/06/02 08:36:08;;;;;;;3.90;3.50;;;;;;;21.84;55.41;95052.19;4839411;29;20408;-66
2021/06/02 08:38:34;;;;;;;2.17;1.83;;;;;;;21.19;55.77;95048.34;4840949;29;20037;-67
2021/06/02 08:40:59;;;;;;;3.45;2.45;;;;;;;21.36;54.94;95044.72;4823188;29;20045;-67
2021/06/02 08:43:25;;;;;;;2.50;2.28;;;;;;;21.94;54.45;95038.41;4808506;29;20436;-68
2021/06/02 08:45:50;;;;;;;6.00;2.75;;;;;;;21.65;54.13;95040.25;4824315;29;20090;-66
2021/06/02 08:48:17;;;;;;;2.20;1.88;;;;;;;21.18;53.10;95038.84;4807742;29;20030;-66
2021/06/02 08:50:42;;;;;;;1.85;1.67;;;;;;;22.30;53.15;95040.56;4823975;29;20033;-68
2021/06/02 08:53:08;;;;;;;2.58;2.30;;;;;;;22.35;51.09;95038.00;4822212;29;20038;-66
2021/06/02 08:55:33;;;;;;;2.15;1.83;;;;;;;22.42;53.96;95030.72;4808762;29;20030;-65
2021/06/02 08:57:59;;;;;;;1.90;1.80;;;;;;;22.19;50.59;95036.16;4822290;29;20034;-64
2021/06/02 09:00:24;;;;;;;4.13;1.92;;;;;;;23.02;52.28;95045.84;4840228;29;20038;-65
2021/06/02 09:02:54;;;;;;;3.65;2.10;;;;;;;23.26;50.19;95041.88;4805142;29;20062;-68
2021/06/02 09:05:20;;;;;;;4.50;2.22;;;;;;;23.77;51.37;95035.31;4820140;29;20038;-66
2021/06/02 09:07:48;;;;;;;2.67;2.47;;;;;;;21.04;54.70;95040.91;4804646;29;20046;-66
2021/06/02 09:10:14;;;;;;;2.60;2.40;;;;;;;20.92;58.64;95037.50;4804289;29;20081;-66
2021/06/02 09:12:40;;;;;;;5.63;2.30;;;;;;;21.66;55.61;95030.50;4821400;29;20083;-65
2021/06/02 09:15:06;;;;;;;2.25;1.95;;;;;;;22.64;53.80;95043.16;4819078;29;20043;-68
2021/06/02 09:17:32;;;;;;;1.48;1.38;;;;;;;24.19;48.97;95037.28;4821585;29;20041;-69
2021/06/02 09:19:57;;;;;;;1.80;1.25;;;;;;;21.87;51.11;95032.44;4819397;29;20030;-69
2021/06/02 09:22:23;;;;;;;1.27;1.13;;;;;;;22.06;52.24;95033.84;4835796;29;20432;-66
2021/06/02 09:24:57;;;;;;;2.08;1.30;;;;;;;21.82;53.71;95032.38;4839593;29;20037;-65
2021/06/02 09:27:42;;;;;;;2.95;2.05;;;;;;;21.09;53.28;95034.94;4841436;29;20038;-69
2021/06/02 09:30:16;;;;;;;2.97;1.27;;;;;;;22.05;52.76;95033.06;4838175;29;20026;-69
2021/06/02 09:33:02;;;;;;;1.48;1.38;;;;;;;21.80;52.27;95029.94;4835110;29;20025;-66
2021/06/02 09:35:35;;;;;;;2.45;2.20;;;;;;;20.91;52.63;95025.34;4845338;29;20037;-66
2021/06/02 09:38:01;;;;;;;2.97;1.67;;;;;;;21.44;51.79;95033.81;4838484;29;20112;-68
2021/06/02 09:40:33;;;;;;;1.98;1.75;;;;;;;21.23;51.91;95029.19;4833365;29;20509;-67
2021/06/02 09:42:58;;;;;;;1.65;1.48;;;;;;;20.49;54.25;95038.69;4844835;29;20061;-69
2021/06/02 09:45:24;;;;;;;2.08;1.70;;;;;;;20.87;53.19;95027.66;4836512;29;20053;-66
2021/06/02 09:47:55;;;;;;;2.15;1.60;;;;;;;21.43;51.43;95026.94;4835159;29;20398;-69
2021/06/02 09:50:33;;;;;;;1.10;1.10;;;;;;;21.96;51.95;95023.16;4819237;29;20038;-66
2021/06/02 09:53:00;;;;;;;1.45;1.33;;;;;;;23.30;50.90;95021.84;4834100;29;20030;-66
2021/06/02 09:55:30;;;;;;;1.83;1.30;;;;;;;23.37;48.08;95021.66;4819900;29;20110;-68
2021/06/02 09:58:17;;;;;;;5.65;1.73;;;;;;;21.89;50.66;95017.22;4818262;29;20038;-67
2021/06/02 10:00:52;;;;;;;2.20;1.98;;;;;;;22.12;50.68;95021.56;4822312;29;20030;-65
2021/06/02 10:03:19;;;;;;;8.63;1.92;;;;;;;21.73;50.99;95016.13;4807117;29;20036;-67
2021/06/02 10:05:49;;;;;;;2.17;1.90;;;;;;;21.72;50.28;95026.91;4822017;29;20033;-65
2021/06/02 10:08:24;;;;;;;3.15;2.42;;;;;;;21.48;51.12;95027.03;4822937;29;20061;-69
2021/06/02 10:10:51;;;;;;;6.75;1.60;;;;;;;21.15;52.85;95019.03;4836083;29;20030;-66
2021/06/02 10:13:16;;;;;;;3.55;2.63;;;;;;;20.91;53.64;95022.72;4837574;29;20068;-66
2021/06/02 10:15:45;;;;;;;2.17;1.50;;;;;;;20.48;53.26;95021.28;4820996;29;20409;-68
2021/06/02 10:18:26;;;;;;;3.50;1.58;;;;;;;20.65;54.44;95025.84;4839168;29;20075;-65
2021/06/02 10:21:10;;;;;;;1.95;1.80;;;;;;;21.60;50.64;95015.63;4821353;29;20045;-64
2021/06/02 10:23:45;;;;;;;3.42;1.42;;;;;;;22.45;51.70;95021.50;4821426;29;20026;-65
2021/06/02 10:26:11;;;;;;;3.50;1.83;;;;;;;21.97;52.46;95016.81;4837991;29;20053;-66
2021/06/02 10:28:37;;;;;;;7.50;1.85;;;;;;;21.78;53.15;95025.97;4836160;29;20034;-64
2021/06/02 10:31:04;;;;;;;1.33;1.00;;;;;;;20.77;52.75;95019.56;4837400;29;20050;-65
2021/06/02 10:33:29;;;;;;;1.80;1.45;;;;;;;21.20;50.13;95020.94;4821876;29;20488;-68
2021/06/02 10:35:55;;;;;;;2.22;1.50;;;;;;;21.47;47.79;95009.63;4821620;29;20037;-68
2021/06/02 10:38:21;;;;;;;2.28;1.38;;;;;;;21.52;52.10;95017.59;4822807;29;20030;-69
2021/06/02 10:40:46;;;;;;;1.17;1.08;;;;;;;21.45;49.99;95011.69;4837592;29;20030;-66
2021/06/02 10:43:15;;;;;;;1.33;1.17;;;;;;;20.89;51.03;95015.06;4837500;29;20040;-65
2021/06/02 10:45:49;;;;;;;2.03;1.65;;;;;;;20.52;51.45;95015.59;4820772;29;20067;-69
2021/06/02 10:48:15;;;;;;;1.60;1.23;;;;;;;19.99;54.43;95022.53;4822539;29;20403;-69
2021/06/02 10:50:42;;;;;;;3.42;1.27;;;;;;;19.72;54.67;95026.56;4836216;29;20026;-69
2021/06/02 10:53:23;;;;;;;0.80;0.80;;;;;;;19.24;54.84;95029.25;4821752;29;20490;-68
2021/06/02 10:55:50;;;;;;;1.40;0.90;;;;;;;18.70;56.30;95031.91;4838196;29;20077;-70
2021/06/02 10:58:16;;;;;;;1.42;0.98;;;;;;;18.66;55.29;95030.75;4821131;29;20041;-68
2021/06/02 11:00:42;;;;;;;0.88;0.70;;;;;;;18.50;56.93;95028.69;4838017;29;20034;-67
2021/06/02 11:03:28;;;;;;;1.05;0.90;;;;;;;18.39;57.73;95036.25;4837317;29;20575;-66
2021/06/02 11:06:06;;;;;;;0.75;0.75;;;;;;;18.32;57.58;95039.94;4821979;29;20575;-68
2021/06/02 11:08:50;;;;;;;4.03;1.20;;;;;;;18.27;58.46;95039.78;4838030;29;20503;-66
2021/06/02 11:11:39;;;;;;;2.47;1.40;;;;;;;18.29;58.63;95041.19;4836769;29;20034;-67
2021/06/02 11:14:18;;;;;;;1.33;1.23;;;;;;;18.40;58.70;95045.69;4827787;29;20042;-66
2021/06/02 11:16:47;;;;;;;2.67;1.00;;;;;;;18.25;59.52;95039.19;4837187;29;20041;-67
2021/06/02 11:19:14;;;;;;;;;;;;;;;18.07;59.71;95047.84;4837922;29;20094;-67
2021/06/02 11:21:59;;;;;;;2.58;1.40;;;;;;;18.51;60.29;95049.47;4852305;29;20399;-67
2021/06/02 11:24:30;;;;;;;1.55;1.33;;;;;;;18.32;61.16;95048.63;4836687;29;20570;-68
2021/06/02 11:27:11;;;;;;;1.27;1.17;;;;;;;18.20;61.80;95052.97;4837806;29;20040;-66
2021/06/02 11:29:57;;;;;;;1.65;1.25;;;;;;;17.93;62.00;95054.19;4835471;29;20032;-66
2021/06/02 11:32:32;;;;;;;1.77;1.40;;;;;;;17.78;62.04;95053.69;4832471;29;20054;-67
2021/06/02 11:35:07;;;;;;;2.08;1.55;;;;;;;17.78;61.51;95051.88;4837761;29;20082;-67
2021/06/02 11:37:34;;;;;;;2.25;2.03;;;;;;;17.87;63.92;95052.41;4820093;29;20061;-67
2021/06/02 11:40:01;;;;;;;6.25;3.83;;;;;;;17.85;63.95;95046.59;4836562;29;20053;-66
2021/06/02 11:42:34;;;;;;;4.22;2.50;;;;;;;17.67;63.49;95047.31;4835537;29;20685;-67
2021/06/02 11:45:05;;;;;;;1.83;1.73;;;;;;;18.07;63.57;95047.03;4820986;29;20034;-65
2021/06/02 11:47:31;;;;;;;4.40;2.50;;;;;;;18.24;63.44;95053.31;4836481;29;20389;-66
2021/06/02 11:50:07;;;;;;;10.10;3.67;;;;;;;18.09;63.27;95060.72;4819973;29;20055;-66
2021/06/02 11:52:33;;;;;;;5.28;3.95;;;;;;;17.80;64.11;95054.28;4821270;29;20097;-67
2021/06/02 11:54:59;;;;;;;7.35;4.60;;;;;;;17.82;64.79;95050.41;4834775;29;20124;-67
2021/06/02 11:57:32;;;;;;;4.70;3.40;;;;;;;17.21;65.95;95044.91;4821172;29;20022;-67
2021/06/02 11:59:59;;;;;;;4.25;2.47;;;;;;;17.56;65.85;95047.19;4805152;29;20447;-67
2021/06/02 12:02:24;;;;;;;2.13;1.92;;;;;;;17.51;65.98;95046.97;4835459;29;20068;-68
2021/06/02 12:04:50;;;;;;;2.30;1.70;;;;;;;17.61;65.47;95042.13;4837883;29;20492;-67
2021/06/02 12:07:25;;;;;;;1.38;1.27;;;;;;;17.46;64.29;95044.19;4845667;29;20044;-67
2021/06/02 12:09:50;;;;;;;1.30;1.20;;;;;;;17.35;62.20;95043.84;4854429;29;20037;-66
2021/06/02 12:12:16;;;;;;;1.90;1.52;;;;;;;17.35;63.28;95049.09;4853751;29;20033;-67
2021/06/02 12:14:41;;;;;;;1.73;1.63;;;;;;;16.85;67.75;95050.72;4838821;29;20085;-64
2021/06/02 12:17:07;;;;;;;3.50;1.80;;;;;;;17.06;70.71;95049.63;4854472;29;20065;-67
2021/06/02 12:19:34;;;;;;;2.03;1.60;;;;;;;17.44;67.42;95056.69;4838590;29;20072;-66
2021/06/02 12:22:19;;;;;;;2.03;1.33;;;;;;;17.39;66.95;95052.91;4827987;29;20033;-67
2021/06/02 12:24:44;;;;;;;1.40;1.30;;;;;;;17.59;67.30;95054.63;4837979;29;20026;-67
2021/06/02 12:27:16;;;;;;;1.52;1.27;;;;;;;17.88;66.14;95048.78;4839014;29;20056;-67
2021/06/02 12:29:41;;;;;;;1.45;1.35;;;;;;;18.00;63.82;95047.06;4836766;29;20068;-68
2021/06/02 12:32:06;;;;;;;3.72;1.40;;;;;;;18.04;63.23;95050.06;4837163;29;20026;-67
2021/06/02 12:34:35;;;;;;;2.75;1.33;;;;;;;17.98;62.33;95045.69;4853085;29;20021;-67
2021/06/02 12:37:02;;;;;;;1.50;1.40;;;;;;;18.28;60.30;95044.81;4854819;29;20026;-69
2021/06/02 12:39:29;;;;;;;1.30;1.20;;;;;;;18.74;58.29;95046.22;4837263;29;20104;-68
2021/06/02 12:41:55;;;;;;;1.80;1.42;;;;;;;18.78;58.01;95044.75;4851451;29;20640;-69
2021/06/02 12:44:25;;;;;;;1.23;0.98;;;;;;;18.75;55.69;95050.44;4856282;29;20030;-68
2021/06/02 12:47:01;;;;;;;5.88;1.30;;;;;;;19.72;55.17;95050.22;4852757;29;20399;-67
2021/06/02 12:49:27;;;;;;;1.27;1.17;;;;;;;19.61;52.06;95044.94;4842380;29;20116;-67
2021/06/02 12:51:56;;;;;;;1.10;1.00;;;;;;;20.39;52.78;95043.72;4857064;29;20495;-69
2021/06/02 12:54:25;;;;;;;1.83;1.20;;;;;;;20.09;50.62;95043.00;4841895;29;20534;-66
2021/06/02 12:56:50;;;;;;;2.75;1.23;;;;;;;18.89;53.92;95049.25;4827556;29;20033;-67
2021/06/02 12:59:16;;;;;;;1.20;1.10;;;;;;;19.85;53.04;95043.97;4840723;29;20074;-69
2021/06/02 13:01:42;;;;;;;1.70;1.45;;;;;;;18.93;54.04;95045.19;4842085;29;20057;-68
2021/06/02 13:04:07;;;;;;;1.85;1.30;;;;;;;18.89;58.52;95057.13;4825401;29;20044;-68
2021/06/02 13:06:33;;;;;;;2.20;1.50;;;;;;;18.87;58.74;95060.00;4827397;29;20025;-67
2021/06/02 13:09:00;;;;;;;3.22;1.98;;;;;;;18.56;59.11;95059.34;4825577;29;20033;-68
2021/06/02 13:11:28;;;;;;;1.63;1.52;;;;;;;18.48;62.05;95064.81;4858228;29;20057;-67
2021/06/02 13:13:55;;;;;;;1.20;1.10;;;;;;;18.36;61.37;95057.66;4857320;29;20113;-68
2021/06/02 13:16:21;;;;;;;3.42;1.40;;;;;;;18.32;62.98;95056.47;4841061;29;20044;-68
2021/06/02 13:18:54;;;;;;;1.45;1.10;;;;;;;17.95;62.67;95060.00;4827133;29;20049;-68
2021/06/02 13:21:26;;;;;;;4.40;1.77;;;;;;;18.01;59.84;95051.31;4840517;29;20033;-69
2021/06/02 13:23:52;;;;;;;3.00;1.88;;;;;;;17.95;62.57;95059.22;4858459;29;20072;-66
2021/06/02 13:26:17;;;;;;;1.90;1.50;;;;;;;18.27;64.09;95056.31;4840780;29;20030;-68
2021/06/02 13:28:53;;;;;;;2.55;1.80;;;;;;;18.65;62.85;95056.19;4858019;29;20466;-67
2021/06/02 13:31:20;;;;;;;4.70;1.70;;;;;;;18.98;61.91;95052.38;4841815;29;20034;-67
2021/06/02 13:33:47;;;;;;;1.77;1.42;;;;;;;19.11;59.00;95050.41;4840254;29;20038;-67
2021/06/02 13:36:21;;;;;;;1.52;1.35;;;;;;;19.14;56.58;95055.22;4858175;29;20029;-68
2021/06/02 13:38:47;;;;;;;2.72;1.40;;;;;;;19.68;57.29;95054.31;4841109;29;20089;-67
2021/06/02 13:41:24;;;;;;;2.92;1.52;;;;;;;19.49;57.93;95058.03;4826364;29;20503;-65
2021/06/02 13:43:50;;;;;;;1.52;1.42;;;;;;;19.50;57.61;95050.94;4840855;29;20034;-65
2021/06/02 13:46:22;;;;;;;2.22;1.23;;;;;;;19.14;56.44;95049.97;4825665;29;20029;-65
2021/06/02 13:48:49;;;;;;;1.40;1.30;;;;;;;18.77;58.83;95056.28;4827793;29;20490;-68
2021/06/02 13:51:19;;;;;;;1.80;1.58;;;;;;;18.62;58.95;95051.38;4855112;29;20025;-66
2021/06/02 13:54:19;;;;;;;3.55;1.45;;;;;;;18.41;60.57;95052.56;4856964;29;20101;-67
2021/06/02 13:57:10;;;;;;;2.45;1.70;;;;;;;18.68;59.31;95066.25;4856615;29;20109;-67
2021/06/02 13:59:53;;;;;;;2.05;1.85;;;;;;;18.66;59.01;95057.78;4856400;29;20033;-67
2021/06/02 14:02:22;;;;;;;2.20;1.58;;;;;;;18.32;59.06;95066.16;4857776;29;20432;-65
2021/06/02 14:04:49;;;;;;;1.58;1.40;;;;;;;18.13;59.23;95064.53;4856067;29;20112;-68
2021/06/02 14:07:16;;;;;;;2.20;1.67;;;;;;;18.13;59.84;95064.53;4857697;29;20081;-67
2021/06/02 14:09:41;;;;;;;1.48;1.38;;;;;;;18.30;60.62;95068.22;4855121;29;20049;-66
2021/06/02 14:12:07;;;;;;;2.00;1.70;;;;;;;18.35;60.37;95074.41;4840651;29;20476;-69
2021/06/02 14:14:33;;;;;;;3.25;1.67;;;;;;;18.34;60.06;95069.38;4856014;29;20495;-68
2021/06/02 14:16:58;;;;;;;6.05;2.03;;;;;;;18.35;59.49;95070.97;4854743;29;20025;-69
2021/06/02 14:19:24;;;;;;;1.70;1.60;;;;;;;18.30;60.85;95070.84;4826004;29;20025;-70
2021/06/02 14:21:49;;;;;;;1.65;1.55;;;;;;;18.20;60.59;95071.31;4839130;29;20471;-69
2021/06/02 14:24:16;;;;;;;5.15;1.70;;;;;;;18.08;62.74;95070.38;4840848;29;20026;-68
2021/06/02 14:26:42;;;;;;;2.00;1.80;;;;;;;18.07;62.94;95074.06;4824739;29;20478;-68
2021/06/02 14:29:09;;;;;;;3.70;1.50;;;;;;;17.96;62.90;95061.63;4857505;29;20052;-68
2021/06/02 14:31:34;;;;;;;3.75;2.20;;;;;;;18.06;61.19;95067.19;4855451;29;20086;-68
2021/06/02 14:34:00;;;;;;;4.20;2.10;;;;;;;17.95;61.19;95065.25;4824303;29;20546;-70
2021/06/02 14:36:26;;;;;;;6.78;5.07;;;;;;;17.84;62.24;95064.13;4856642;29;20440;-68
2021/06/02 14:38:52;;;;;;;65.30;36.90;;;;;;;17.92;63.10;95065.66;4839233;29;20041;-70
2021/06/02 14:41:17;;;;;;;52.90;33.72;;;;;;;17.92;62.30;95065.66;4855782;29;20093;-69
2021/06/02 14:43:42;;;;;;;84.60;55.72;;;;;;;17.89;62.77;95066.09;4843729;29;20041;-68
2021/06/02 14:46:08;;;;;;;116.53;79.25;;;;;;;17.82;62.31;95065.34;4838250;29;20033;-68
2021/06/02 14:48:34;;;;;;;49.90;41.63;;;;;;;17.90;62.24;95065.09;4821022;29;20030;-70
2021/06/02 14:51:03;;;;;;;19.83;15.68;;;;;;;17.83;63.04;95061.72;4838020;29;20136;-69
2021/06/02 14:53:29;;;;;;;15.23;13.20;;;;;;;18.01;62.69;95066.22;4815395;29;20033;-69
2021/06/02 14:55:55;;;;;;;465.52;261.58;;;;;;;18.05;63.41;95070.81;4837795;29;20021;-69
2021/06/02 14:58:20;;;;;;;114.35;65.90;;;;;;;18.00;63.15;95070.66;4841217;29;20156;-68
2021/06/02 15:00:46;;;;;;;64.25;41.75;;;;;;;18.11;63.47;95074.44;4855072;29;20086;-68
2021/06/02 15:03:11;;;;;;;412.83;232.10;;;;;;;18.18;63.33;95068.09;4855246;29;20633;-69
2021/06/02 15:05:37;;;;;;;116.45;66.60;;;;;;;17.97;63.89;95073.72;4821126;29;20041;-68
2021/06/02 15:08:02;;;;;;;23.25;15.25;;;;;;;17.97;64.01;95068.47;4856185;29;20030;-67
2021/06/02 15:10:28;;;;;;;29.73;21.05;;;;;;;18.17;64.61;95063.09;4838574;29;20034;-67
2021/06/02 15:12:54;;;;;;;18.80;10.38;;;;;;;18.12;63.38;95065.53;4855378;29;20045;-69
2021/06/02 15:15:20;;;;;;;18.20;12.23;;;;;;;18.19;63.90;95069.72;4824877;29;20559;-69
2021/06/02 15:17:45;;;;;;;624.97;375.85;;;;;;;18.01;63.24;95072.28;4823275;29;20045;-68
2021/06/02 15:20:12;;;;;;;134.60;73.88;;;;;;;18.11;63.32;95066.56;4824556;29;20040;-70
2021/06/02 15:22:37;;;;;;;42.70;20.98;;;;;;;17.96;63.67;95069.47;4838515;29;20044;-69
2021/06/02 15:25:03;;;;;;;15.60;9.13;;;;;;;18.08;64.16;95069.59;4824388;29;20594;-69
2021/06/02 15:27:28;;;;;;;42.88;23.38;;;;;;;17.97;65.24;95073.72;4823646;29;20500;-69
2021/06/02 15:29:54;;;;;;;7.25;5.28;;;;;;;17.85;64.73;95067.56;4824009;29;20029;-68
2021/06/02 15:32:27;;;;;;;95.68;53.22;;;;;;;17.68;65.78;95072.50;4839546;29;20036;-69
2021/06/02 15:34:54;;;;;;;61.28;32.47;;;;;;;17.83;65.92;95072.19;4854721;29;20037;-69
2021/06/02 15:37:29;;;;;;;16.63;13.20;;;;;;;17.72;66.98;95071.03;4839702;29;20105;-69
2021/06/02 15:39:57;;;;;;;13.15;8.65;;;;;;;17.89;67.66;95082.63;4839704;29;20411;-69
2021/06/02 15:42:22;;;;;;;4.88;4.38;;;;;;;17.70;67.00;95083.56;4839322;29;20441;-69
2021/06/02 15:44:49;;;;;;;33.90;17.45;;;;;;;17.35;68.93;95079.69;4838326;29;20021;-69
2021/06/02 15:47:15;;;;;;;22.05;11.40;;;;;;;17.21;67.79;95078.19;4828004;29;20034;-68
2021/06/02 15:49:41;;;;;;;6.68;5.22;;;;;;;16.80;69.66;95086.34;4852800;29;20097;-68
2021/06/02 15:52:07;;;;;;;8.10;5.82;;;;;;;16.93;70.04;95091.53;4836328;29;20029;-66
2021/06/02 15:54:34;;;;;;;3.88;2.70;;;;;;;16.94;69.70;95089.75;4853205;29;20048;-66
2021/06/02 15:57:00;;;;;;;2.03;1.65;;;;;;;16.70;70.96;95083.34;4837659;29;20061;-67
2021/06/02 15:59:26;;;;;;;1.92;1.58;;;;;;;16.50;72.55;95087.81;4825553;29;20038;-67
2021/06/02 16:01:51;;;;;;;1.70;1.50;;;;;;;16.57;72.42;95096.44;4853482;29;20469;-67
2021/06/02 16:04:17;;;;;;;2.00;1.42;;;;;;;16.33;72.55;95103.91;4840792;29;20102;-68
2021/06/02 16:06:42;;;;;;;3.90;1.58;;;;;;;16.37;72.48;95100.91;4819772;29;20527;-68
2021/06/02 16:09:07;;;;;;;2.45;1.50;;;;;;;16.28;73.07;95101.09;4835512;29;20440;-66
2021/06/02 16:11:35;;;;;;;2.33;1.25;;;;;;;16.08;73.52;95096.88;4835117;29;20108;-67
2021/06/02 16:14:01;;;;;;;1.40;1.27;;;;;;;16.23;73.95;95113.97;4818855;29;20446;-67
2021/06/02 16:16:26;;;;;;;2.15;1.40;;;;;;;16.08;73.85;95109.94;4819781;29;20030;-68
2021/06/02 16:18:52;;;;;;;2.00;1.80;;;;;;;15.98;75.04;95112.94;4821854;29;20472;-67
2021/06/02 16:21:17;;;;;;;1.23;1.13;;;;;;;15.91;75.58;95112.13;4822587;29;20065;-67
2021/06/02 16:23:43;;;;;;;4.53;1.60;;;;;;;15.70;75.07;95107.88;4838502;29;20034;-68
2021/06/02 16:26:10;;;;;;;2.30;1.63;;;;;;;15.64;72.70;95113.88;4822358;29;20033;-68
2021/06/02 16:28:36;;;;;;;2.15;1.88;;;;;;;15.63;74.74;95111.50;4838418;29;20033;-67
2021/06/02 16:31:01;;;;;;;2.60;1.58;;;;;;;15.67;75.24;95117.91;4821869;29;20030;-67
2021/06/02 16:33:27;;;;;;;2.97;1.60;;;;;;;15.73;74.95;95119.75;4823060;29;20068;-67
2021/06/02 16:35:53;;;;;;;3.80;1.83;;;;;;;15.54;75.07;95113.47;4837510;29;20030;-68
2021/06/02 16:38:18;;;;;;;2.17;1.77;;;;;;;15.61;74.83;95116.09;4822560;29;20070;-67
2021/06/02 16:40:44;;;;;;;3.55;1.85;;;;;;;15.55;74.54;95117.69;4821850;29;20425;-67
2021/06/02 16:43:09;;;;;;;1.85;1.70;;;;;;;15.71;74.68;95127.78;4839000;29;20037;-67
2021/06/02 16:45:38;;;;;;;3.28;1.60;;;;;;;15.80;74.58;95131.00;4838286;29;20038;-68
2021/06/02 16:48:04;;;;;;;1.95;1.65;;;;;;;15.87;75.97;95131.00;4837360;29;20529;-67
2021/06/02 16:50:30;;;;;;;1.40;1.30;;;;;;;15.74;75.78;95131.78;4832609;29;20034;-68